Time;durP1;ratioP1;P1;durP2;ratioP2;P2;SDS_P1;SDS_P2;PMS_P1;PMS_P2;Temp;Humidity;BMP_temperature;BMP_pressure;BME280_temperature;BME280_humidity;BME280_pressure;Samples;Min_cycle;Max_cycle;Signal;HPM_P1;HPM_P2
2023/01/10 00:01:45;;;;;;;19.90;3.08;;;;;;;7.94;100.00;101243.00;5009420;28;20061;-63
2023/01/10 00:04:11;;;;;;;17.15;2.67;;;;;;;8.00;100.00;101242.03;5006913;28;20388;-63
2023/01/10 00:06:36;;;;;;;14.82;2.70;;;;;;;7.96;100.00;101250.84;5008577;28;20034;-64
2023/01/10 00:09:02;;;;;;;18.33;3.28;;;;;;;8.06;100.00;101255.06;4989803;28;20033;-64
2023/01/10 00:14:11;;;;;;;19.10;3.08;;;;;;;8.18;100.00;101250.50;5009100;28;20411;-65
2023/01/10 00:16:38;;;;;;;19.38;2.97;;;;;;;8.16;100.00;101253.13;5009089;28;20030;-63
2023/01/10 00:19:04;;;;;;;18.33;2.63;;;;;;;8.27;100.00;101246.84;5007952;28;20030;-64
2023/01/10 00:21:32;;;;;;;21.77;3.97;;;;;;;8.25;100.00;101262.59;5008662;28;20453;-63
2023/01/10 00:24:07;;;;;;;17.63;2.78;;;;;;;8.33;100.00;101271.25;5006978;28;20034;-63
2023/01/10 00:26:37;;;;;;;17.20;2.67;;;;;;;8.33;100.00;101265.09;5007579;28;20488;-63
2023/01/10 00:29:04;;;;;;;20.55;2.50;;;;;;;8.38;100.00;101279.03;5008819;28;20045;-63
2023/01/10 00:31:29;;;;;;;15.80;2.72;;;;;;;8.45;100.00;101280.66;5008619;28;20026;-63
2023/01/10 00:33:54;;;;;;;14.25;3.00;;;;;;;8.40;100.00;101286.91;4990941;28;20867;-64
2023/01/10 00:36:20;;;;;;;15.20;3.35;;;;;;;8.36;100.00;101285.22;5008047;28;20376;-65
2023/01/10 00:38:45;;;;;;;23.52;3.65;;;;;;;8.50;100.00;101291.09;5008642;28;20531;-63
2023/01/10 00:43:55;;;;;;;23.50;3.50;;;;;;;8.49;100.00;101299.00;5007671;28;20473;-62
2023/01/10 00:43:55;;;;;;;19.85;3.28;;;;;;;8.49;100.00;101294.59;5008062;28;20160;-64
2023/01/10 00:46:21;;;;;;;20.52;3.30;;;;;;;8.49;100.00;101291.09;5007899;28;20657;-64
2023/01/10 00:48:46;;;;;;;29.48;3.10;;;;;;;8.53;100.00;101306.78;5008965;28;20108;-64
2023/01/10 00:51:11;;;;;;;18.52;2.75;;;;;;;8.46;100.00;101308.66;5006333;28;20057;-64
2023/01/10 00:53:37;;;;;;;25.95;3.90;;;;;;;8.47;100.00;101301.66;5008339;28;20034;-63
2023/01/10 00:56:02;;;;;;;19.70;2.50;;;;;;;8.50;100.00;101304.22;5008576;28;20029;-61
2023/01/10 00:58:27;;;;;;;18.17;4.00;;;;;;;8.61;100.00;101305.81;5008427;28;20025;-63
2023/01/10 01:00:53;;;;;;;22.90;3.22;;;;;;;8.59;100.00;101297.97;5008268;28;20133;-63
2023/01/10 01:03:20;;;;;;;17.45;3.80;;;;;;;8.50;100.00;101314.72;5002137;28;20061;-65
2023/01/10 01:05:47;;;;;;;30.23;3.97;;;;;;;8.58;100.00;101310.22;5007217;28;20038;-66
2023/01/10 01:08:13;;;;;;;18.55;3.40;;;;;;;8.59;100.00;101317.22;5007217;28;20427;-65
2023/01/10 01:10:39;;;;;;;22.92;3.95;;;;;;;8.55;100.00;101310.28;4989820;28;20090;-63
2023/01/10 01:13:07;;;;;;;20.77;3.10;;;;;;;8.57;100.00;101308.50;5007657;28;20049;-64
2023/01/10 01:15:36;;;;;;;24.35;3.85;;;;;;;8.58;100.00;101315.47;5008089;28;20021;-64
2023/01/10 01:18:02;;;;;;;16.48;2.42;;;;;;;8.56;100.00;101325.16;5007851;28;20061;-66
2023/01/10 01:20:27;;;;;;;22.35;3.60;;;;;;;8.57;100.00;101320.75;5007325;28;20034;-64
2023/01/10 01:22:52;;;;;;;22.38;3.20;;;;;;;8.61;100.00;101332.09;5007154;28;20532;-64
2023/01/10 01:25:18;;;;;;;19.60;3.33;;;;;;;8.48;100.00;101334.88;5008342;28;20029;-65
2023/01/10 01:27:43;;;;;;;24.73;3.53;;;;;;;8.44;100.00;101336.72;5007250;28;20025;-64
2023/01/10 01:30:09;;;;;;;23.17;3.40;;;;;;;8.41;100.00;101330.63;5007402;28;20030;-66
2023/01/10 01:32:35;;;;;;;17.88;3.03;;;;;;;8.48;100.00;101348.00;4990230;28;20036;-65
2023/01/10 01:35:00;;;;;;;23.00;4.07;;;;;;;8.48;100.00;101337.50;5006834;28;20104;-63
2023/01/10 01:37:25;;;;;;;23.58;4.63;;;;;;;8.52;100.00;101344.44;5008084;28;20025;-65
2023/01/10 01:39:51;;;;;;;26.08;3.33;;;;;;;8.46;100.00;101340.16;5007574;28;20030;-65
2023/01/10 01:42:20;;;;;;;23.52;4.03;;;;;;;8.57;100.00;101344.41;5008368;28;20053;-65
2023/01/10 01:45:08;;;;;;;26.88;3.67;;;;;;;8.53;100.00;101359.31;5007592;28;20034;-64
2023/01/10 01:47:46;;;;;;;25.85;3.90;;;;;;;8.47;100.00;101362.03;5007834;28;20407;-63
2023/01/10 01:50:20;;;;;;;26.13;3.60;;;;;;;8.53;100.00;101358.44;4988775;28;20026;-64
2023/01/10 01:52:45;;;;;;;33.17;4.00;;;;;;;8.50;100.00;101366.38;5007766;28;20499;-66
2023/01/10 01:55:11;;;;;;;30.75;3.83;;;;;;;8.56;100.00;101363.69;5007312;28;20030;-63
2023/01/10 01:57:36;;;;;;;23.88;3.92;;;;;;;8.57;100.00;101368.91;5007857;28;20034;-63
2023/01/10 02:00:03;;;;;;;27.42;3.30;;;;;;;8.64;100.00;101388.03;5007668;28;20065;-65
2023/01/10 02:02:32;;;;;;;28.15;3.80;;;;;;;8.65;100.00;101396.81;4991755;28;20026;-67
2023/01/10 02:05:07;;;;;;;24.70;4.22;;;;;;;8.59;100.00;101398.66;4991987;28;20032;-65
2023/01/10 02:07:36;;;;;;;18.02;3.47;;;;;;;8.66;100.00;101383.66;4993065;28;20026;-65
2023/01/10 02:10:06;;;;;;;24.10;3.50;;;;;;;8.68;100.00;101394.13;4992547;28;20026;-63
2023/01/10 02:12:32;;;;;;;24.48;3.88;;;;;;;8.58;100.00;101389.03;4992958;28;20431;-64
2023/01/10 02:14:58;;;;;;;29.65;4.28;;;;;;;8.70;100.00;101392.34;5011384;28;20026;-65
2023/01/10 02:17:23;;;;;;;23.77;4.88;;;;;;;8.59;100.00;101385.53;4993987;28;20026;-66
2023/01/10 02:19:51;;;;;;;22.13;3.40;;;;;;;8.67;100.00;101395.03;5011050;28;20028;-67
2023/01/10 02:22:53;;;;;;;21.67;3.57;;;;;;;8.71;100.00;101391.44;5011940;28;20081;-64
2023/01/10 02:25:40;;;;;;;39.38;4.15;;;;;;;8.70;100.00;101394.97;4993720;28;20030;-64
2023/01/10 02:28:26;;;;;;;33.20;3.90;;;;;;;8.70;100.00;101384.47;5011096;28;20030;-64
2023/01/10 02:31:28;;;;;;;16.20;3.45;;;;;;;8.65;100.00;101392.44;5010238;28;20022;-65
2023/01/10 02:34:01;;;;;;;19.55;3.03;;;;;;;8.70;100.00;101382.69;5010551;28;20063;-64
2023/01/10 02:36:38;;;;;;;19.08;3.05;;;;;;;8.69;100.00;101393.22;5011069;28;20025;-63
2023/01/10 02:39:04;;;;;;;30.13;4.22;;;;;;;8.58;100.00;101390.81;4993328;28;20026;-67
2023/01/10 02:41:38;;;;;;;21.05;3.85;;;;;;;8.51;100.00;101397.88;4993431;28;20017;-67
2023/01/10 02:44:17;;;;;;;19.77;3.72;;;;;;;8.58;100.00;101396.91;5010707;28;20606;-68
2023/01/10 02:46:43;;;;;;;19.67;3.75;;;;;;;8.67;100.00;101405.53;5009911;28;20030;-65
2023/01/10 02:49:09;;;;;;;22.52;3.90;;;;;;;8.59;100.00;101400.41;4992314;28;20034;-65
2023/01/10 02:51:34;;;;;;;21.60;3.30;;;;;;;8.68;100.00;101418.66;5010380;28;20053;-63
2023/01/10 02:54:07;;;;;;;21.45;3.53;;;;;;;8.53;100.00;101403.97;5010768;28;20113;-67
2023/01/10 02:56:43;;;;;;;22.45;3.63;;;;;;;8.61;100.00;101411.75;4993939;28;20440;-63
2023/01/10 02:59:08;;;;;;;33.15;4.32;;;;;;;8.51;100.00;101415.38;4993678;28;20088;-65
2023/01/10 03:01:58;;;;;;;24.48;3.85;;;;;;;8.55;100.00;101409.25;5011381;28;20461;-63
2023/01/10 03:04:52;;;;;;;23.75;3.75;;;;;;;8.61;100.00;101414.38;4992860;28;20169;-65
2023/01/10 03:07:28;;;;;;;25.45;3.05;;;;;;;8.57;100.00;101416.19;5006101;28;20096;-63
2023/01/10 03:09:58;;;;;;;22.48;3.45;;;;;;;8.50;100.00;101411.91;4992805;28;20033;-65
2023/01/10 03:13:01;;;;;;;24.92;4.13;;;;;;;8.51;100.00;101415.38;5010573;28;20473;-66
2023/01/10 03:15:32;;;;;;;24.20;3.80;;;;;;;8.36;100.00;101413.88;4992170;28;20030;-65
2023/01/10 03:18:01;;;;;;;18.00;3.58;;;;;;;8.22;100.00;101425.47;5010606;28;20029;-62
2023/01/10 03:20:28;;;;;;;21.33;3.00;;;;;;;8.24;100.00;101428.06;5009024;28;20035;-65
2023/01/10 03:22:54;;;;;;;26.38;3.70;;;;;;;8.17;100.00;101438.66;4992524;28;20424;-64
2023/01/10 03:25:23;;;;;;;27.30;3.85;;;;;;;8.19;100.00;101441.25;5009485;28;20449;-64
2023/01/10 03:28:02;;;;;;;25.83;4.80;;;;;;;8.12;100.00;101429.13;5010361;28;20018;-65
2023/01/10 03:30:28;;;;;;;;;;;;;;;8.18;100.00;101444.75;5010126;28;20034;-62
2023/01/10 03:32:55;;;;;;;27.83;3.17;;;;;;;8.15;100.00;101439.53;5010036;28;19917;-64
2023/01/10 03:35:22;;;;;;;23.67;4.32;;;;;;;7.97;100.00;101445.03;5009159;28;20491;-64
2023/01/10 03:37:55;;;;;;;20.90;3.65;;;;;;;7.98;100.00;101453.78;4992659;28;20030;-65
2023/01/10 03:40:32;;;;;;;28.45;4.28;;;;;;;7.95;100.00;101456.44;4992602;28;20109;-66
2023/01/10 03:45:58;;;;;;;38.40;4.57;;;;;;;7.74;100.00;101453.22;4994955;28;20555;-64
2023/01/10 03:48:26;;;;;;;31.60;3.95;;;;;;;7.64;100.00;101462.03;5007775;28;20469;-65
2023/01/10 03:50:52;;;;;;;27.40;3.70;;;;;;;7.73;100.00;101475.06;4990951;28;20022;-64
2023/01/10 03:53:17;;;;;;;29.85;4.20;;;;;;;7.68;100.00;101472.50;5008899;28;20443;-65
2023/01/10 03:55:43;;;;;;;34.47;4.10;;;;;;;7.66;100.00;101469.03;4991446;28;20030;-65
2023/01/10 03:58:09;;;;;;;26.77;3.80;;;;;;;7.69;100.00;101482.13;4991787;28;20024;-65
2023/01/10 04:00:34;;;;;;;26.73;3.83;;;;;;;7.68;100.00;101477.75;5009398;28;20025;-65
2023/01/10 04:03:00;;;;;;;32.70;4.57;;;;;;;7.72;100.00;101481.22;4991721;28;20093;-65
2023/01/10 04:05:25;;;;;;;26.70;4.30;;;;;;;7.69;100.00;101484.75;5008823;28;20038;-65
2023/01/10 04:07:50;;;;;;;29.77;4.38;;;;;;;7.74;100.00;101484.69;4975322;28;20021;-65
2023/01/10 04:10:16;;;;;;;32.55;4.28;;;;;;;7.69;100.00;101499.59;5008269;28;20030;-65
2023/01/10 04:12:41;;;;;;;34.30;3.60;;;;;;;7.75;100.00;101480.28;5008980;28;20459;-65
2023/01/10 04:15:07;;;;;;;25.27;3.60;;;;;;;7.79;100.00;101484.59;5008490;28;20037;-64
2023/01/10 04:17:32;;;;;;;17.77;3.38;;;;;;;7.69;100.00;101492.63;5008563;28;20576;-66
2023/01/10 04:19:58;;;;;;;31.45;3.95;;;;;;;7.66;100.00;101491.75;5008249;28;20033;-66
2023/01/10 04:22:23;;;;;;;27.60;4.30;;;;;;;7.69;100.00;101491.72;5009336;28;20052;-65
2023/01/10 04:24:50;;;;;;;29.17;4.05;;;;;;;7.67;100.00;101498.75;5008975;28;20014;-64
2023/01/10 04:27:16;;;;;;;26.88;3.70;;;;;;;7.58;100.00;101518.94;5008687;28;20479;-64
2023/01/10 04:29:41;;;;;;;21.25;3.85;;;;;;;7.52;100.00;101519.00;5008060;28;20058;-64
2023/01/10 04:32:07;;;;;;;27.38;3.47;;;;;;;7.52;100.00;101511.13;5008671;28;20017;-62
2023/01/10 04:34:32;;;;;;;32.00;3.78;;;;;;;7.45;100.00;101501.59;5007956;28;20621;-65
2023/01/10 04:36:57;;;;;;;19.40;3.15;;;;;;;7.49;100.00;101503.31;5007290;28;20661;-64
2023/01/10 04:39:23;;;;;;;33.63;4.47;;;;;;;7.44;100.00;101494.63;4991125;28;20057;-61
2023/01/10 04:41:48;;;;;;;28.58;4.05;;;;;;;7.44;100.00;101487.59;4991651;28;20022;-64
2023/01/10 04:44:14;;;;;;;21.98;3.70;;;;;;;7.37;100.00;101498.19;5008174;28;20029;-64
2023/01/10 04:46:39;;;;;;;20.92;4.82;;;;;;;7.31;100.00;101496.47;5008836;28;20088;-64
2023/01/10 04:49:05;;;;;;;30.38;4.30;;;;;;;7.31;100.00;101502.59;5007725;28;20018;-64
2023/01/10 04:51:30;;;;;;;21.20;4.03;;;;;;;7.28;100.00;101507.00;4989199;28;20037;-63
2023/01/10 04:53:55;;;;;;;24.30;3.92;;;;;;;7.30;100.00;101507.84;4990263;28;20018;-63
2023/01/10 04:56:21;;;;;;;32.55;4.80;;;;;;;7.24;100.00;101527.13;5007161;28;20018;-63
2023/01/10 04:58:48;;;;;;;19.05;3.28;;;;;;;7.20;100.00;101538.53;5008143;28;20018;-63
2023/01/10 05:01:15;;;;;;;32.80;4.20;;;;;;;7.19;100.00;101542.91;5008374;28;20045;-67
2023/01/10 05:03:41;;;;;;;31.42;4.82;;;;;;;7.19;100.00;101536.78;5007702;28;20034;-65
2023/01/10 05:06:06;;;;;;;32.83;4.63;;;;;;;7.10;100.00;101542.97;5008153;28;20379;-64
2023/01/10 05:08:32;;;;;;;25.70;4.25;;;;;;;7.11;100.00;101552.59;5003720;28;20374;-65
2023/01/10 05:10:58;;;;;;;21.90;4.18;;;;;;;7.04;100.00;101548.25;4988727;28;20034;-65
2023/01/10 05:13:24;;;;;;;26.65;4.07;;;;;;;7.00;100.00;101563.16;5002296;28;20120;-62
2023/01/10 05:15:49;;;;;;;30.65;4.82;;;;;;;7.00;100.00;101557.03;5008722;28;20736;-66
2023/01/10 05:18:14;;;;;;;18.92;3.78;;;;;;;6.91;100.00;101557.97;5005450;28;20030;-65
2023/01/10 05:20:40;;;;;;;44.17;5.28;;;;;;;6.88;100.00;101557.97;5006674;28;20113;-63
2023/01/10 05:23:05;;;;;;;32.88;4.03;;;;;;;6.85;100.00;101560.63;5007668;28;20053;-65
2023/01/10 05:25:30;;;;;;;22.92;4.55;;;;;;;6.78;100.00;101563.31;5007470;28;20026;-66
2023/01/10 05:27:56;;;;;;;34.25;4.95;;;;;;;6.69;100.00;101569.44;5002481;28;20031;-64
2023/01/10 05:30:21;;;;;;;21.67;4.32;;;;;;;6.65;100.00;101569.50;5007732;28;20166;-66
2023/01/10 05:32:46;;;;;;;21.27;3.42;;;;;;;6.57;100.00;101575.63;5008179;28;20034;-65
2023/01/10 05:35:12;;;;;;;40.58;4.68;;;;;;;6.53;100.00;101584.38;5005904;28;20096;-66
2023/01/10 05:37:37;;;;;;;22.95;3.47;;;;;;;6.50;100.00;101584.38;5009854;28;20026;-66
2023/01/10 05:40:03;;;;;;;31.45;3.92;;;;;;;6.46;100.00;101587.91;5011833;28;20068;-66
2023/01/10 05:42:28;;;;;;;36.17;4.13;;;;;;;6.40;100.00;101580.06;5011664;28;20034;-64
2023/01/10 05:44:54;;;;;;;43.88;4.40;;;;;;;6.40;100.00;101587.94;5010602;28;20547;-65
2023/01/10 05:47:19;;;;;;;34.53;4.50;;;;;;;6.40;100.00;101588.81;5010752;28;20114;-66
2023/01/10 05:49:44;;;;;;;24.88;3.70;;;;;;;6.45;100.00;101587.03;5010653;28;20064;-64
2023/01/10 05:52:10;;;;;;;32.38;4.03;;;;;;;6.50;100.00;101594.00;5011775;28;20096;-66
2023/01/10 05:54:35;;;;;;;25.63;4.15;;;;;;;6.47;100.00;101594.03;5011386;28;20512;-65
2023/01/10 05:57:00;;;;;;;38.00;4.78;;;;;;;6.48;100.00;101601.88;4993497;28;20025;-67
2023/01/10 05:59:26;;;;;;;22.25;3.97;;;;;;;6.48;100.00;101599.25;5010530;28;20106;-64
2023/01/10 06:01:51;;;;;;;24.60;3.70;;;;;;;6.52;100.00;101607.94;4992784;28;20041;-67
2023/01/10 06:04:16;;;;;;;28.85;3.90;;;;;;;6.59;100.00;101609.66;5011103;28;20477;-65
2023/01/10 06:06:42;;;;;;;20.88;3.75;;;;;;;6.62;100.00;101614.03;4992878;28;20036;-65
2023/01/10 06:09:07;;;;;;;20.63;4.13;;;;;;;6.66;100.00;101615.75;5011072;28;20065;-66
2023/01/10 06:11:35;;;;;;;25.77;4.40;;;;;;;6.65;100.00;101614.03;5011542;28;20062;-66
2023/01/10 06:14:01;;;;;;;25.98;3.85;;;;;;;6.55;100.00;101611.44;5011424;28;20034;-66
2023/01/10 06:16:27;;;;;;;18.45;3.50;;;;;;;6.50;100.00;101609.72;4993356;28;20077;-66
2023/01/10 06:18:52;;;;;;;29.83;4.25;;;;;;;6.47;100.00;101604.50;5011150;28;20022;-63
2023/01/10 06:21:18;;;;;;;36.03;4.65;;;;;;;6.44;100.00;101602.75;5008794;28;20025;-66
2023/01/10 06:23:43;;;;;;;32.33;4.50;;;;;;;6.44;100.00;101605.34;4994486;28;20492;-67
2023/01/10 06:26:08;;;;;;;29.52;4.63;;;;;;;6.39;100.00;101602.78;4991388;28;20062;-65
2023/01/10 06:28:34;;;;;;;27.08;4.05;;;;;;;6.30;100.00;101608.06;5011416;28;20029;-63
2023/01/10 06:30:59;;;;;;;27.20;4.43;;;;;;;6.30;100.00;101611.53;5011425;28;20468;-65
2023/01/10 06:33:25;;;;;;;38.65;4.72;;;;;;;6.22;100.00;101608.06;5009398;28;20034;-65
2023/01/10 06:35:50;;;;;;;18.25;3.47;;;;;;;6.26;100.00;101616.78;5010847;28;20029;-63
2023/01/10 06:38:16;;;;;;;37.47;4.40;;;;;;;6.26;100.00;101633.34;5010801;28;20032;-65
2023/01/10 06:40:41;;;;;;;27.40;4.40;;;;;;;6.24;100.00;101626.38;5010679;28;20150;-65
2023/01/10 06:43:06;;;;;;;25.50;3.85;;;;;;;6.21;100.00;101629.91;5010514;28;20062;-65
2023/01/10 06:45:32;;;;;;;30.75;5.20;;;;;;;6.24;100.00;101639.47;5010597;28;20398;-65
2023/01/10 06:47:57;;;;;;;25.83;4.00;;;;;;;6.28;100.00;101644.69;5009667;28;20140;-66
2023/01/10 06:50:23;;;;;;;21.45;3.45;;;;;;;6.37;100.00;101645.53;5009478;28;20491;-66
2023/01/10 06:52:59;;;;;;;39.15;5.15;;;;;;;6.48;100.00;101646.38;5010936;28;20057;-66
2023/01/10 06:55:25;;;;;;;36.63;4.90;;;;;;;6.59;100.00;101645.47;5008836;28;20026;-65
2023/01/10 06:57:58;;;;;;;33.70;4.32;;;;;;;6.77;100.00;101653.22;5008120;28;20056;-65
2023/01/10 07:00:24;;;;;;;29.02;3.53;;;;;;;6.92;100.00;101654.91;4998233;28;20062;-66
2023/01/10 07:02:49;;;;;;;36.95;4.75;;;;;;;6.99;100.00;101662.72;5000876;28;20034;-64
2023/01/10 07:05:15;;;;;;;23.27;4.05;;;;;;;7.03;100.00;101673.19;4997262;28;20018;-63
2023/01/10 07:07:40;;;;;;;23.13;4.60;;;;;;;7.04;100.00;101684.53;5000784;28;20096;-66
2023/01/10 07:10:06;;;;;;;33.78;5.38;;;;;;;7.00;100.00;101688.94;4999732;28;20029;-65
2023/01/10 07:12:31;;;;;;;35.78;4.20;;;;;;;6.90;100.00;101692.47;4999191;28;20402;-65
2023/01/10 07:14:56;;;;;;;28.80;4.47;;;;;;;6.87;100.00;101692.50;5001545;28;20484;-63
2023/01/10 07:17:22;;;;;;;23.35;4.47;;;;;;;6.83;100.00;101695.13;5002768;28;20021;-65
2023/01/10 07:19:47;;;;;;;27.63;4.85;;;;;;;6.83;100.00;101689.00;5009160;28;20018;-67
2023/01/10 07:22:12;;;;;;;28.05;4.35;;;;;;;6.79;100.00;101685.53;5008590;28;20030;-66
2023/01/10 07:24:38;;;;;;;27.77;4.63;;;;;;;6.80;100.00;101686.38;5009117;28;20033;-62
2023/01/10 07:27:03;;;;;;;34.30;5.40;;;;;;;6.83;100.00;101696.84;5009618;28;20133;-65
2023/01/10 07:29:28;;;;;;;32.85;4.30;;;;;;;6.85;100.00;101694.22;5009243;28;20095;-67
2023/01/10 07:31:54;;;;;;;32.60;4.85;;;;;;;6.89;100.00;101699.47;5008495;28;20057;-65
2023/01/10 07:34:19;;;;;;;34.42;4.38;;;;;;;6.93;100.00;101692.47;5008069;28;20392;-65
2023/01/10 07:36:44;;;;;;;25.40;3.75;;;;;;;6.92;100.00;101701.19;5006999;28;20404;-64
2023/01/10 07:39:10;;;;;;;25.85;3.90;;;;;;;7.00;100.00;101703.78;4990442;28;20033;-65
2023/01/10 07:41:35;;;;;;;29.13;4.65;;;;;;;7.00;100.00;101704.66;5006076;28;20032;-65
2023/01/10 07:44:00;;;;;;;30.92;4.15;;;;;;;7.05;100.00;101702.00;5008317;28;20030;-65
2023/01/10 07:46:26;;;;;;;34.17;4.55;;;;;;;7.10;100.00;101709.84;5007423;28;20033;-64
2023/01/10 07:48:51;;;;;;;30.77;3.95;;;;;;;7.02;100.00;101699.41;5007402;28;20440;-67
2023/01/10 07:51:16;;;;;;;29.67;5.30;;;;;;;7.03;100.00;101699.41;5008598;28;20097;-66
2023/01/10 07:53:42;;;;;;;23.60;4.10;;;;;;;7.00;100.00;101704.66;5008399;28;20022;-65
2023/01/10 07:56:07;;;;;;;29.77;4.40;;;;;;;7.05;100.00;101707.25;4997461;28;20491;-65
2023/01/10 07:58:33;;;;;;;25.30;4.18;;;;;;;7.05;100.00;101708.09;4997999;28;20069;-64
2023/01/10 08:01:00;;;;;;;31.42;4.30;;;;;;;7.03;100.00;101715.13;4996290;28;20029;-65
2023/01/10 08:03:28;;;;;;;29.83;4.50;;;;;;;6.98;100.00;101716.03;4981896;28;20080;-64
2023/01/10 08:06:01;;;;;;;33.45;4.70;;;;;;;6.88;100.00;101716.06;5004859;28;20036;-65
2023/01/10 08:08:27;;;;;;;32.92;5.05;;;;;;;6.89;100.00;101723.03;4997008;28;20537;-64
2023/01/10 08:10:52;;;;;;;25.58;4.10;;;;;;;7.01;100.00;101722.09;4999782;28;20105;-65
2023/01/10 08:13:17;;;;;;;29.88;4.85;;;;;;;6.97;100.00;101725.63;5008824;28;20080;-64
2023/01/10 08:15:44;;;;;;;27.92;4.28;;;;;;;6.99;100.00;101723.88;4989983;28;20072;-66
2023/01/10 08:18:09;;;;;;;29.30;5.07;;;;;;;7.00;100.00;101724.72;5006044;28;20030;-64
2023/01/10 08:20:34;;;;;;;27.75;4.72;;;;;;;6.99;100.00;101716.03;4997199;28;20073;-65
2023/01/10 08:23:00;;;;;;;42.03;5.28;;;;;;;6.90;100.00;101709.09;4999778;28;20346;-67
2023/01/10 08:25:26;;;;;;;37.35;6.28;;;;;;;6.94;100.00;101702.06;5001848;28;20032;-65
2023/01/10 08:27:51;;;;;;;32.10;5.13;;;;;;;6.95;100.00;101706.41;5007551;28;20058;-65
2023/01/10 08:30:17;;;;;;;28.38;5.15;;;;;;;6.93;100.00;101716.03;4974832;28;20033;-66
2023/01/10 08:32:42;;;;;;;31.60;5.95;;;;;;;6.89;100.00;101714.31;5008453;28;20021;-65
2023/01/10 08:35:08;;;;;;;35.50;5.30;;;;;;;6.82;100.00;101719.59;5002125;28;20038;-66
2023/01/10 08:37:34;;;;;;;31.65;4.93;;;;;;;6.86;100.00;101712.56;5000181;28;20034;-65
2023/01/10 08:39:59;;;;;;;23.33;4.50;;;;;;;6.78;100.00;101712.63;5003215;28;20049;-65
2023/01/10 08:42:25;;;;;;;29.30;4.25;;;;;;;6.82;100.00;101711.72;4989137;28;20026;-65
2023/01/10 08:44:50;;;;;;;24.83;4.30;;;;;;;6.90;100.00;101713.44;5005707;28;20489;-64
2023/01/10 08:47:15;;;;;;;34.55;5.10;;;;;;;6.77;100.00;101715.25;4999990;28;20025;-65
2023/01/10 08:49:41;;;;;;;22.48;4.72;;;;;;;6.78;100.00;101719.59;4990223;28;20044;-65
2023/01/10 08:52:06;;;;;;;29.98;4.80;;;;;;;6.72;100.00;101715.25;4988500;28;20042;-65
2023/01/10 08:54:32;;;;;;;27.60;5.38;;;;;;;6.76;100.00;101711.75;4991112;28;20041;-66
2023/01/10 08:56:58;;;;;;;25.98;4.82;;;;;;;6.78;100.00;101704.75;5004113;28;20049;-67
2023/01/10 08:59:23;;;;;;;36.75;5.28;;;;;;;6.82;100.00;101706.50;5005996;28;20484;-66
2023/01/10 09:01:48;;;;;;;29.50;5.10;;;;;;;6.84;100.00;101698.63;4989837;28;20439;-66
2023/01/10 09:04:14;;;;;;;31.98;5.43;;;;;;;6.74;100.00;101692.53;5005690;28;20057;-65
2023/01/10 09:06:39;;;;;;;30.58;5.00;;;;;;;6.77;100.00;101697.75;5003053;28;20660;-66
2023/01/10 09:09:04;;;;;;;30.05;5.97;;;;;;;6.79;100.00;101688.16;4989584;28;20076;-67
2023/01/10 09:11:30;;;;;;;34.28;6.57;;;;;;;6.74;100.00;101684.66;5006621;28;20456;-66
2023/01/10 09:13:55;;;;;;;37.90;5.35;;;;;;;6.80;100.00;101684.66;5007504;28;20056;-66
2023/01/10 09:16:21;;;;;;;24.00;4.40;;;;;;;6.78;100.00;101693.41;5004671;28;20500;-66
2023/01/10 09:18:46;;;;;;;36.75;5.07;;;;;;;6.90;100.00;101687.25;5006489;28;20724;-62
2023/01/10 09:21:12;;;;;;;30.48;4.95;;;;;;;6.91;100.00;101688.97;4989162;28;20322;-66
2023/01/10 09:23:38;;;;;;;29.95;5.60;;;;;;;6.87;100.00;101688.13;5006730;28;20038;-65
2023/01/10 09:26:04;;;;;;;39.38;5.63;;;;;;;6.95;100.00;101688.06;5005885;28;20026;-64
2023/01/10 09:28:30;;;;;;;33.45;5.40;;;;;;;6.92;100.00;101683.72;5006732;28;20034;-65
2023/01/10 09:30:55;;;;;;;32.28;5.65;;;;;;;6.89;100.00;101682.88;4988943;28;20445;-66
2023/01/10 09:33:20;;;;;;;38.65;6.38;;;;;;;6.94;100.00;101683.72;5003881;28;20029;-64
2023/01/10 09:35:46;;;;;;;31.67;4.60;;;;;;;6.95;100.00;101686.34;5006785;28;20028;-66
2023/01/10 09:38:15;;;;;;;28.48;5.78;;;;;;;6.94;100.00;101691.56;5005512;28;20122;-66
2023/01/10 09:41:04;;;;;;;32.45;4.78;;;;;;;6.86;100.00;101690.75;5007172;28;21134;-65
2023/01/10 09:43:57;;;;;;;39.20;5.53;;;;;;;6.88;100.00;101691.59;5005967;28;20173;-61
2023/01/10 09:46:25;;;;;;;24.77;5.70;;;;;;;6.91;100.00;101699.44;5006714;28;20036;-64
2023/01/10 09:48:50;;;;;;;26.70;5.40;;;;;;;7.03;100.00;101699.41;4987022;28;20084;-63
2023/01/10 09:51:37;;;;;;;31.17;5.22;;;;;;;7.02;100.00;101697.66;5006671;28;20021;-63
2023/01/10 09:54:06;;;;;;;24.75;4.82;;;;;;;7.08;100.00;101686.28;4988229;28;20030;-66
2023/01/10 09:56:32;;;;;;;47.47;6.10;;;;;;;7.10;100.00;101681.03;4988943;28;20023;-66
2023/01/10 09:58:58;;;;;;;25.08;4.78;;;;;;;7.11;100.00;101691.50;4988920;28;20455;-65
2023/01/10 10:01:31;;;;;;;26.98;4.32;;;;;;;7.20;100.00;101686.19;4989026;28;20030;-64
2023/01/10 10:04:04;;;;;;;39.97;5.47;;;;;;;7.17;100.00;101680.97;4987176;28;20358;-64
2023/01/10 10:06:30;;;;;;;21.67;4.40;;;;;;;7.18;100.00;101673.97;4990112;28;20065;-65
2023/01/10 10:08:55;;;;;;;24.90;4.47;;;;;;;7.27;100.00;101678.28;4990668;28;20062;-65
2023/01/10 10:11:24;;;;;;;23.40;4.75;;;;;;;7.36;100.00;101672.97;4990602;28;20050;-62
2023/01/10 10:14:12;;;;;;;22.15;4.03;;;;;;;7.16;100.00;101673.09;5007278;28;20026;-64
2023/01/10 10:16:54;;;;;;;19.07;4.07;;;;;;;7.27;100.00;101676.53;4986197;28;20089;-64
2023/01/10 10:19:26;;;;;;;23.60;4.30;;;;;;;7.38;100.00;101666.00;4982264;28;20018;-63
2023/01/10 10:22:12;;;;;;;38.10;4.72;;;;;;;7.41;100.00;101659.84;4988771;28;20089;-64
2023/01/10 10:24:53;;;;;;;24.95;4.85;;;;;;;7.23;100.00;101663.47;5005630;28;20113;-64
2023/01/10 10:27:22;;;;;;;21.10;4.40;;;;;;;7.35;100.00;101668.63;5011425;28;20397;-65
2023/01/10 10:30:12;;;;;;;30.05;5.43;;;;;;;7.21;100.00;101645.13;4993771;28;20026;-64
2023/01/10 10:32:50;;;;;;;21.02;3.90;;;;;;;7.31;100.00;101659.91;5010357;28;20069;-64
2023/01/10 10:35:44;;;;;;;28.17;4.43;;;;;;;7.26;100.00;101666.06;4993231;28;20022;-64
2023/01/10 10:38:15;;;;;;;23.70;5.20;;;;;;;7.24;100.00;101655.59;4971148;28;20038;-64
2023/01/10 10:40:43;;;;;;;34.63;5.85;;;;;;;7.22;100.00;101652.09;4991314;28;20026;-63
2023/01/10 10:43:20;;;;;;;32.70;5.25;;;;;;;7.13;100.00;101652.19;4973322;28;20037;-66
2023/01/10 10:45:53;;;;;;;36.50;5.32;;;;;;;7.23;100.00;101643.38;4974881;28;20473;-64
2023/01/10 10:48:28;;;;;;;19.05;4.60;;;;;;;7.05;100.00;101645.22;4962701;28;20081;-65
2023/01/10 10:51:07;;;;;;;27.40;5.15;;;;;;;7.23;100.00;101630.28;4999120;28;20018;-65
2023/01/10 10:53:33;;;;;;;28.95;4.43;;;;;;;7.24;100.00;101618.88;4989998;28;20604;-65
2023/01/10 10:56:03;;;;;;;26.95;4.40;;;;;;;7.32;100.00;101619.69;5002305;28;20030;-65
2023/01/10 10:58:30;;;;;;;27.38;4.57;;;;;;;7.30;100.00;101621.47;5000038;28;20547;-61
2023/01/10 11:00:56;;;;;;;22.17;4.28;;;;;;;7.33;100.00;101610.97;5001358;28;20066;-67
2023/01/10 11:03:38;;;;;;;23.02;4.13;;;;;;;7.38;100.00;101599.56;4990058;28;20106;-65
2023/01/10 11:06:06;;;;;;;30.83;4.60;;;;;;;7.39;100.00;101602.16;5001629;28;20026;-65
2023/01/10 11:08:34;;;;;;;25.83;4.07;;;;;;;7.42;100.00;101601.28;4985211;28;20026;-65
2023/01/10 11:11:01;;;;;;;26.08;4.63;;;;;;;7.31;100.00;101596.97;4985720;28;20101;-64
2023/01/10 11:13:32;;;;;;;18.33;4.03;;;;;;;7.36;100.00;101601.31;4989314;28;20424;-66
2023/01/10 11:15:58;;;;;;;21.27;4.25;;;;;;;7.40;100.00;101589.91;5003952;28;20033;-64
2023/01/10 11:18:26;;;;;;;25.00;4.15;;;;;;;7.59;100.00;101588.03;5009360;28;20441;-65
2023/01/10 11:21:02;;;;;;;23.95;4.22;;;;;;;7.55;100.00;101588.91;5005253;28;20475;-66
2023/01/10 11:23:43;;;;;;;26.73;5.13;;;;;;;7.63;100.00;101578.34;4991971;28;20662;-64
2023/01/10 11:26:19;;;;;;;24.60;4.32;;;;;;;7.62;100.00;101581.88;4985792;28;20030;-64
2023/01/10 11:28:45;;;;;;;25.58;4.22;;;;;;;7.59;100.00;101575.75;5006593;28;20021;-67